Time;durP1;ratioP1;P1;durP2;ratioP2;P2;SDS_P1;SDS_P2;PMS_P1;PMS_P2;Temp;Humidity;BMP_temperature;BMP_pressure;BME280_temperature;BME280_humidity;BME280_pressure;Samples;Min_cycle;Max_cycle;Signal;HPM_P1;HPM_P2
2022/12/01 00:01:13;;;;;;;;;;;;;;;-143.57;100.00;51398.41;5111228;28;20329;-63
2022/12/01 00:03:40;;;;;;;;;;;;;;;-143.57;100.00;51410.34;5111047;27;19940;-63
2022/12/01 00:06:11;;;;;;;;;;;;;;;-143.57;100.00;51394.44;5109322;28;19927;-62
2022/12/01 00:08:38;;;;;;;;;;;;;;;-143.57;100.00;51410.34;5113052;27;20318;-63
2022/12/01 00:11:05;;;;;;;;;;;;;;;-143.57;100.00;51400.41;5110301;27;20017;-62
2022/12/01 00:13:32;;;;;;;;;;;;;;;-143.57;100.00;51422.25;5109739;27;20022;-62
2022/12/01 00:16:12;;;;;;;;;;;;;;;-143.57;100.00;51386.47;5108378;27;20450;-62
2022/12/01 00:18:39;;;;;;;;;;;;;;;-143.57;100.00;51412.31;5112402;27;19931;-63
2022/12/01 00:21:12;;;;;;;;;;;;;;;-143.57;100.00;51410.34;5106911;27;19932;-63
2022/12/01 00:23:41;;;;;;;;;;;;;;;-143.57;100.00;51386.47;5114147;27;19935;-63
2022/12/01 00:26:08;;;;;;;;;;;;;;;-143.57;100.00;51378.53;5110229;28;20405;-62
2022/12/01 00:28:34;;;;;;;;;;;;;;;-143.57;100.00;51392.44;5110824;27;20375;-63
2022/12/01 00:31:05;;;;;;;;;;;;;;;-143.57;100.00;51418.28;5108794;27;19932;-63
2022/12/01 00:33:32;;;;;;;;;;;;;;;-143.57;100.00;51438.16;5108151;27;19928;-63
2022/12/01 00:35:59;;;;;;;;;;;;;;;-143.57;100.00;51384.50;5111805;28;19998;-63
2022/12/01 00:38:26;;;;;;;;;;;;;;;-143.57;100.00;51422.25;5110050;27;20116;-63
2022/12/01 00:40:52;;;;;;;;;;;;;;;-143.57;100.00;51414.31;5112849;27;19924;-63
2022/12/01 00:43:19;;;;;;;;;;;;;;;-143.57;100.00;51422.25;5111427;27;19924;-63
2022/12/01 00:45:46;;;;;;;;;;;;;;;-143.57;100.00;51410.34;5109632;27;19965;-63
2022/12/01 00:48:12;;;;;;;;;;;;;;;-143.57;100.00;51414.31;5106080;27;19935;-63
2022/12/01 00:50:39;;;;;;;;;;;;;;;-143.57;100.00;51394.44;5112927;27;19928;-63
2022/12/01 00:53:06;;;;;;;;;;;;;;;-143.57;100.00;51422.25;5101586;27;20014;-63
2022/12/01 00:55:33;;;;;;;;;;;;;;;-143.57;100.00;51374.56;5096101;27;20337;-62
2022/12/01 00:57:59;;;;;;;;;;;;;;;-143.57;100.00;51390.47;5096749;28;19924;-63
2022/12/01 01:00:26;;;;;;;;;;;;;;;-143.57;100.00;51402.38;5092309;27;19927;-62
2022/12/01 01:02:54;;;;;;;;;;;;;;;-143.57;100.00;51446.13;5094369;28;19960;-63
2022/12/01 01:05:20;;;;;;;;;;;;;;;-143.57;100.00;51394.44;5092711;27;20019;-63
2022/12/01 01:07:47;;;;;;;;;;;;;;;-143.57;100.00;51406.34;5095294;28;19928;-64
2022/12/01 01:10:14;;;;;;;;;;;;;;;-143.57;100.00;51402.38;5096941;28;19989;-63
2022/12/01 01:12:40;;;;;;;;;;;;;;;-143.57;100.00;51356.66;5093438;28;19924;-63
2022/12/01 01:15:07;;;;;;;;;;;;;;;-143.57;100.00;51410.34;5095363;27;19935;-64
2022/12/01 01:17:34;;;;;;;;;;;;;;;-143.57;100.00;51368.59;5093225;28;19933;-63
2022/12/01 01:20:03;;;;;;;;;;;;;;;-143.57;100.00;51410.34;5092094;28;19959;-63
2022/12/01 01:22:29;;;;;;;;;;;;;;;-143.57;100.00;51394.44;5095770;28;19990;-64
2022/12/01 01:24:56;;;;;;;;;;;;;;;-143.57;100.00;51422.25;5094649;27;19967;-63
2022/12/01 01:27:23;;;;;;;;;;;;;;;-143.57;100.00;51392.44;5094574;28;20023;-63
2022/12/01 01:29:49;;;;;;;;;;;;;;;-143.57;100.00;51430.22;5092784;28;19978;-64
2022/12/01 01:32:16;;;;;;;;;;;;;;;-143.57;100.00;51390.47;5092183;27;19928;-64
2022/12/01 01:34:44;;;;;;;;;;;;;;;-143.57;100.00;51438.16;5093168;28;19996;-63
2022/12/01 01:37:10;;;;;;;;;;;;;;;-143.57;100.00;51442.16;5094079;27;19955;-63
2022/12/01 01:39:37;;;;;;;;;;;;;;;-143.57;100.00;51422.25;5096379;28;19927;-63
2022/12/01 01:42:03;;;;;;;;;;;;;;;-143.57;100.00;51398.41;5091635;27;20013;-63
2022/12/01 01:44:50;;;;;;;;;;;;;;;-143.57;100.00;51390.47;5092517;28;20405;-63
2022/12/01 01:47:19;;;;;;;;;;;;;;;-143.57;100.00;51398.41;5090982;27;19939;-64
2022/12/01 01:49:46;;;;;;;;;;;;;;;-143.57;100.00;51388.47;5089727;28;19928;-63
2022/12/01 01:52:14;;;;;;;;;;;;;;;-143.57;100.00;51402.38;5096469;28;19928;-63
2022/12/01 01:54:43;;;;;;;;;;;;;;;-143.57;100.00;51418.28;5094466;28;19932;-64
2022/12/01 01:57:12;;;;;;;;;;;;;;;-143.57;100.00;51414.31;5097320;28;19928;-64
2022/12/01 01:59:48;;;;;;;;;;;;;;;-143.57;100.00;51402.38;5097893;27;19927;-63
2022/12/01 02:02:16;;;;;;;;;;;;;;;-143.57;100.00;51438.16;5094705;27;19928;-63
2022/12/01 02:04:47;;;;;;;;;;;;;;;-143.57;100.00;51444.13;5094173;28;19928;-63
2022/12/01 02:07:15;;;;;;;;;;;;;;;-143.57;100.00;51394.44;5094177;28;19928;-63
2022/12/01 02:09:42;;;;;;;;;;;;;;;-143.57;100.00;51406.34;5089669;28;20791;-63
2022/12/01 02:12:12;;;;;;;;;;;;;;;-143.57;100.00;51418.28;5096008;28;19959;-63
2022/12/01 02:14:51;;;;;;;;;;;;;;;-143.57;100.00;51414.31;5098494;28;19927;-63
2022/12/01 02:17:28;;;;;;;;;;;;;;;-143.57;100.00;51390.47;5095269;28;20026;-63
2022/12/01 02:20:13;;;;;;;;;;;;;;;-143.57;100.00;51410.34;5092864;28;19928;-63
2022/12/01 02:22:43;;;;;;;;;;;;;;;-143.57;100.00;51422.25;5094135;27;19928;-64
2022/12/01 02:25:18;;;;;;;;;;;;;;;-143.57;100.00;51386.47;5094989;28;19934;-63
2022/12/01 02:27:50;;;;;;;;;;;;;;;-143.57;100.00;51402.38;5095866;27;19928;-63
2022/12/01 02:30:39;;;;;;;;;;;;;;;-143.57;100.00;51370.56;5090528;28;20574;-63
2022/12/01 02:33:05;;;;;;;;;;;;;;;-143.57;100.00;51396.41;5097139;27;20016;-63
2022/12/01 02:35:44;;;;;;;;;;;;;;;-143.57;100.00;51386.47;5095748;28;19928;-63
2022/12/01 02:38:27;;;;;;;;;;;;;;;-143.57;100.00;51398.41;5093119;27;19935;-63
2022/12/01 02:40:59;;;;;;;;;;;;;;;-143.57;100.00;51410.34;5091397;27;20451;-63
2022/12/01 02:43:55;;;;;;;;;;;;;;;-143.57;100.00;51446.13;5091471;28;20357;-63
2022/12/01 02:46:25;;;;;;;;;;;;;;;-143.57;100.00;51402.38;5071304;28;20342;-64
2022/12/01 02:48:53;;;;;;;;;;;;;;;-143.57;100.00;51390.47;5098852;28;19932;-63
2022/12/01 02:51:25;;;;;;;;;;;;;;;-143.57;100.00;51422.25;5098740;28;19928;-64
2022/12/01 02:53:53;;;;;;;;;;;;;;;-143.57;100.00;51426.25;5093293;28;19938;-64
2022/12/01 02:56:21;;;;;;;;;;;;;;;-143.57;100.00;51398.41;5094379;28;19924;-64
2022/12/01 02:58:48;;;;;;;;;;;;;;;-143.57;100.00;51402.38;5087642;28;19950;-64
2022/12/01 03:01:34;;;;;;;;;;;;;;;-143.57;100.00;51374.56;5098713;28;20031;-62
2022/12/01 03:04:19;;;;;;;;;;;;;;;-143.57;100.00;51404.38;5094324;28;19924;-62
2022/12/01 03:07:05;;;;;;;;;;;;;;;-143.57;100.00;51418.28;5099002;28;19974;-61
2022/12/01 03:09:43;;;;;;;;;;;;;;;-143.57;100.00;51374.56;5094195;28;19927;-62
2022/12/01 03:12:28;;;;;;;;;;;;;;;-143.57;100.00;51380.50;5095942;28;19935;-61
2022/12/01 03:15:13;;;;;;;;;;;;;;;-143.57;100.00;51414.31;5094416;28;19994;-62
2022/12/01 03:17:47;;;;;;;;;;;;;;;-143.57;100.00;51406.34;5097379;28;19935;-62
2022/12/01 03:20:18;;;;;;;;;;;;;;;-143.57;100.00;51382.50;5088067;28;19935;-64
2022/12/01 03:22:48;;;;;;;;;;;;;;;-143.57;100.00;51400.41;5099144;28;20039;-64
2022/12/01 03:25:16;;;;;;;;;;;;;;;-143.57;100.00;51402.38;5099121;28;19932;-64
2022/12/01 03:27:44;;;;;;;;;;;;;;;-143.57;100.00;51426.25;5093305;28;20347;-62
2022/12/01 03:30:35;;;;;;;;;;;;;;;-143.57;100.00;51406.34;5090289;28;19934;-63
2022/12/01 03:33:08;;;;;;;;;;;;;;;-143.57;100.00;51366.59;5095638;28;19963;-63
2022/12/01 03:35:38;;;;;;;;;;;;;;;-143.57;100.00;51396.41;5094871;28;19928;-63
2022/12/01 03:38:09;;;;;;;;;;;;;;;-143.57;100.00;51414.31;5092993;28;19932;-63
2022/12/01 03:40:36;;;;;;;;;;;;;;;-143.57;100.00;51406.34;5092214;28;19975;-63
2022/12/01 03:43:09;;;;;;;;;;;;;;;-143.57;100.00;51406.34;5097417;28;20407;-63
2022/12/01 03:45:49;;;;;;;;;;;;;;;-143.57;100.00;51410.34;5094753;28;19924;-63
2022/12/01 03:48:16;;;;;;;;;;;;;;;-143.57;100.00;51410.34;5091069;28;19956;-64
2022/12/01 03:50:52;;;;;;;;;;;;;;;-143.57;100.00;51366.59;5093101;28;19928;-64
2022/12/01 03:53:22;;;;;;;;;;;;;;;-143.57;100.00;51378.53;5090532;28;19935;-62
2022/12/01 03:55:57;;;;;;;;;;;;;;;-143.57;100.00;51408.34;5095138;28;20363;-64
2022/12/01 03:58:32;;;;;;;;;;;;;;;-143.57;100.00;51382.50;5088479;28;19932;-64
2022/12/01 04:01:03;;;;;;;;;;;;;;;-143.57;100.00;51410.34;5089858;28;19934;-63
2022/12/01 04:03:30;;;;;;;;;;;;;;;-143.57;100.00;51402.38;5094164;28;19928;-63
2022/12/01 04:05:56;;;;;;;;;;;;;;;-143.57;100.00;51378.53;5095088;28;20402;-64
2022/12/01 04:08:24;;;;;;;;;;;;;;;-143.57;100.00;51360.63;5091239;28;19928;-63
2022/12/01 04:10:50;;;;;;;;;;;;;;;-143.57;100.00;51374.56;5089864;28;20325;-64
2022/12/01 04:13:24;;;;;;;;;;;;;;;-143.57;100.00;51406.34;5092419;28;19928;-64
2022/12/01 04:15:54;;;;;;;;;;;;;;;-143.57;100.00;51386.47;5090475;28;19935;-65
2022/12/01 04:18:21;;;;;;;;;;;;;;;-143.57;100.00;51362.63;5092880;28;19928;-64
2022/12/01 04:20:48;;;;;;;;;;;;;;;-143.57;100.00;51398.41;5093144;28;19940;-63
2022/12/01 04:23:58;;;;;;;;;;;;;;;-143.57;100.00;51390.47;5093259;28;19931;-64
2022/12/01 04:26:02;;;;;;;;;;;;;;;-143.57;100.00;51398.41;5093156;28;19966;-63
2022/12/01 04:28:29;;;;;;;;;;;;;;;-143.57;100.00;51426.25;5094343;28;19932;-64
2022/12/01 04:30:56;;;;;;;;;;;;;;;-143.57;100.00;51394.44;5101585;28;19977;-63
2022/12/01 04:33:22;;;;;;;;;;;;;;;-143.57;100.00;51426.25;5094316;27;20405;-63
2022/12/01 04:35:58;;;;;;;;;;;;;;;-143.57;100.00;51374.56;5097253;28;20366;-63
2022/12/01 04:38:25;;;;;;;;;;;;;;;-143.57;100.00;51398.41;5100104;27;19932;-63
2022/12/01 04:40:56;;;;;;;;;;;;;;;-143.57;100.00;51406.34;5097030;28;20012;-63
2022/12/01 04:43:23;;;;;;;;;;;;;;;-143.57;100.00;51422.25;5097187;28;19932;-63
2022/12/01 04:45:49;;;;;;;;;;;;;;;-143.57;100.00;51412.31;5098439;27;20295;-62
2022/12/01 04:48:16;;;;;;;;;;;;;;;-143.57;100.00;51382.50;5094732;28;19927;-63
2022/12/01 04:50:43;;;;;;;;;;;;;;;-143.57;100.00;51414.31;5092827;28;20460;-62
2022/12/01 04:53:09;;;;;;;;;;;;;;;-143.57;100.00;51412.31;5099297;27;19928;-62
2022/12/01 04:55:37;;;;;;;;;;;;;;;-143.57;100.00;51390.47;5092416;28;20234;-62
2022/12/01 04:58:04;;;;;;;;;;;;;;;-143.57;100.00;51408.34;5094022;28;19967;-63
2022/12/01 05:00:32;;;;;;;;;;;;;;;-143.57;100.00;51366.59;5101027;28;20014;-63
2022/12/01 05:02:59;;;;;;;;;;;;;;;-143.57;100.00;51434.19;5095633;28;19974;-64
2022/12/01 05:05:25;;;;;;;;;;;;;;;-143.57;100.00;51402.38;5099528;28;19924;-63
2022/12/01 05:07:52;;;;;;;;;;;;;;;-143.57;100.00;51440.16;5100897;28;19938;-63
2022/12/01 05:10:19;;;;;;;;;;;;;;;-143.57;100.00;51418.28;5093832;28;19928;-62
2022/12/01 05:12:45;;;;;;;;;;;;;;;-143.57;100.00;51430.22;5093740;28;20014;-62
2022/12/01 05:15:12;;;;;;;;;;;;;;;-143.57;100.00;51446.13;5099425;28;20375;-62
2022/12/01 05:17:39;;;;;;;;;;;;;;;-143.57;100.00;51394.44;5098532;28;19927;-62
2022/12/01 05:22:56;;;;;;;;;;;;;;;-143.57;100.00;51402.38;5096117;27;19989;-62
2022/12/01 05:25:32;;;;;;;;;;;;;;;-143.57;100.00;51384.50;5097288;28;19932;-63
2022/12/01 05:27:58;;;;;;;;;;;;;;;-143.57;100.00;51414.31;5096573;28;20398;-65
2022/12/01 05:30:25;;;;;;;;;;;;;;;-143.57;100.00;51418.28;5096822;28;20023;-63
2022/12/01 05:32:54;;;;;;;;;;;;;;;-143.57;100.00;51414.31;5100937;28;20428;-63
2022/12/01 05:35:21;;;;;;;;;;;;;;;-143.57;100.00;51406.34;5099586;28;19963;-63
2022/12/01 05:37:47;;;;;;;;;;;;;;;-143.57;100.00;51430.22;5092874;28;19924;-63
2022/12/01 05:40:14;;;;;;;;;;;;;;;-143.57;100.00;51438.16;5090040;28;19928;-63
2022/12/01 05:42:40;;;;;;;;;;;;;;;-143.57;100.00;51358.66;5094859;28;19928;-63
2022/12/01 05:45:07;;;;;;;;;;;;;;;-143.57;100.00;51422.25;5092632;28;19924;-63
2022/12/01 05:47:34;;;;;;;;;;;;;;;-143.57;100.00;51374.56;5092076;28;19932;-63
2022/12/01 05:50:00;;;;;;;;;;;;;;;-143.57;100.00;51386.47;5095127;28;19970;-63
2022/12/01 05:52:32;;;;;;;;;;;;;;;-143.57;100.00;51398.41;5093360;28;19924;-63
2022/12/01 05:54:59;;;;;;;;;;;;;;;-143.57;100.00;51418.28;5094834;27;20015;-62
2022/12/01 05:57:26;;;;;;;;;;;;;;;-143.57;100.00;51394.44;5092030;28;20390;-62
2022/12/01 05:59:53;;;;;;;;;;;;;;;-143.57;100.00;51406.34;5092156;28;19936;-62
2022/12/01 06:02:19;;;;;;;;;;;;;;;-143.57;100.00;51426.25;5090913;28;19928;-62
2022/12/01 06:04:46;;;;;;;;;;;;;;;-143.57;100.00;51392.44;5092144;28;19932;-63
2022/12/01 06:07:13;;;;;;;;;;;;;;;-143.57;100.00;51418.28;5091154;27;19932;-63
2022/12/01 06:09:39;;;;;;;;;;;;;;;-143.57;100.00;51432.19;5090753;28;19928;-63
2022/12/01 06:12:06;;;;;;;;;;;;;;;-143.57;100.00;51402.38;5092068;28;19934;-62
2022/12/01 06:14:33;;;;;;;;;;;;;;;-143.57;100.00;51402.38;5087438;28;19938;-62
2022/12/01 06:16:59;;;;;;;;;;;;;;;-143.57;100.00;51406.34;5091381;28;20021;-62
2022/12/01 06:19:26;;;;;;;;;;;;;;;-143.57;100.00;51420.28;5085431;28;19932;-61
2022/12/01 06:21:53;;;;;;;;;;;;;;;-143.57;100.00;51434.19;5091898;28;19932;-62
2022/12/01 06:24:19;;;;;;;;;;;;;;;-143.57;100.00;51380.50;5090971;28;20397;-61
2022/12/01 06:26:46;;;;;;;;;;;;;;;-143.57;100.00;51390.47;5089987;28;19928;-62
2022/12/01 06:29:12;;;;;;;;;;;;;;;-143.57;100.00;51392.44;5091775;28;20022;-61
2022/12/01 06:31:39;;;;;;;;;;;;;;;-143.57;100.00;51390.47;5088877;28;20372;-62
2022/12/01 06:34:06;;;;;;;;;;;;;;;-143.57;100.00;51390.47;5090448;28;20029;-62
2022/12/01 06:36:32;;;;;;;;;;;;;;;-143.57;100.00;51402.38;5090199;28;19928;-62
2022/12/01 06:38:59;;;;;;;;;;;;;;;-143.57;100.00;51422.25;5094714;28;19928;-63
2022/12/01 06:41:26;;;;;;;;;;;;;;;-143.57;100.00;51342.75;5087152;28;19928;-62
2022/12/01 06:43:53;;;;;;;;;;;;;;;-143.57;100.00;51338.78;5094449;28;19985;-61
2022/12/01 06:46:20;;;;;;;;;;;;;;;-143.57;100.00;51422.25;5092541;28;20443;-61
2022/12/01 06:48:48;;;;;;;;;;;;;;;-143.57;100.00;51426.25;5089614;28;20378;-62
2022/12/01 06:51:15;;;;;;;;;;;;;;;-143.57;100.00;51406.34;5089351;28;19935;-62
2022/12/01 06:53:41;;;;;;;;;;;;;;;-143.57;100.00;51414.31;5092379;28;19946;-62
2022/12/01 06:56:08;;;;;;;;;;;;;;;-143.57;100.00;51402.38;5089262;28;20419;-62
2022/12/01 06:58:35;;;;;;;;;;;;;;;-143.57;100.00;51406.34;5090581;28;19931;-63
2022/12/01 07:01:08;;;;;;;;;;;;;;;-143.57;100.00;51386.47;5090188;28;19967;-62
2022/12/01 07:03:35;;;;;;;;;;;;;;;-143.57;100.00;51402.38;5094979;28;19939;-62
2022/12/01 07:06:02;;;;;;;;;;;;;;;-143.57;100.00;51374.56;5089249;28;19985;-62
2022/12/01 07:08:29;;;;;;;;;;;;;;;-143.57;100.00;51394.44;5089939;28;19928;-62
2022/12/01 07:10:56;;;;;;;;;;;;;;;-143.57;100.00;51414.31;5090059;28;19924;-62
2022/12/01 07:13:23;;;;;;;;;;;;;;;-143.57;100.00;51398.41;5095249;28;19981;-63
2022/12/01 07:15:54;;;;;;;;;;;;;;;-143.57;100.00;51390.47;5089481;28;20406;-62
2022/12/01 07:18:21;;;;;;;;;;;;;;;-143.57;100.00;51354.66;5090942;28;20506;-62
2022/12/01 07:20:47;;;;;;;;;;;;;;;-143.57;100.00;51414.31;5092180;28;20709;-62
2022/12/01 07:23:14;;;;;;;;;;;;;;;-143.57;100.00;51376.53;5087469;28;19928;-63
2022/12/01 07:25:41;;;;;;;;;;;;;;;-143.57;100.00;51378.53;5092885;28;19927;-63
2022/12/01 07:28:07;;;;;;;;;;;;;;;-143.57;100.00;51418.28;5089821;28;19928;-62
2022/12/01 07:30:34;;;;;;;;;;;;;;;-143.57;100.00;51418.28;5093718;28;20415;-63
2022/12/01 07:33:00;;;;;;;;;;;;;;;-143.57;100.00;51426.25;5094721;28;20465;-62
2022/12/01 07:35:27;;;;;;;;;;;;;;;-143.57;100.00;51406.34;5100691;28;19931;-62
2022/12/01 07:37:54;;;;;;;;;;;;;;;-143.57;100.00;51430.22;5096357;28;20454;-62
2022/12/01 07:40:22;;;;;;;;;;;;;;;-143.57;100.00;51406.34;5097426;28;19978;-63
2022/12/01 07:42:48;;;;;;;;;;;;;;;-143.57;100.00;51370.56;5087229;28;19935;-63
2022/12/01 07:45:15;;;;;;;;;;;;;;;-143.57;100.00;51362.63;5088344;28;20604;-64
2022/12/01 07:47:43;;;;;;;;;;;;;;;-143.57;100.00;51394.44;5098763;28;19935;-62
2022/12/01 07:50:10;;;;;;;;;;;;;;;-143.57;100.00;51406.34;5096986;28;20353;-62
2022/12/01 07:52:36;;;;;;;;;;;;;;;-143.57;100.00;51402.38;5098303;28;19928;-63
2022/12/01 07:55:03;;;;;;;;;;;;;;;-143.57;100.00;51422.25;5093869;28;20059;-63
2022/12/01 07:57:30;;;;;;;;;;;;;;;-143.57;100.00;51404.38;5098674;28;20078;-63
2022/12/01 07:59:56;;;;;;;;;;;;;;;-143.57;100.00;51406.34;5091865;28;19928;-63
2022/12/01 08:02:23;;;;;;;;;;;;;;;-143.57;100.00;51402.38;5099399;28;20014;-63
2022/12/01 08:04:50;;;;;;;;;;;;;;;-143.57;100.00;51426.25;5095920;28;20436;-64
2022/12/01 08:07:16;;;;;;;;;;;;;;;-143.57;100.00;51378.53;5091668;28;20385;-62
2022/12/01 08:09:43;;;;;;;;;;;;;;;-143.57;100.00;51394.44;5102743;28;19967;-62
2022/12/01 08:12:10;;;;;;;;;;;;;;;-143.57;100.00;51394.44;5101644;28;20372;-61
2022/12/01 08:14:36;;;;;;;;;;;;;;;-143.57;100.00;51422.25;5103097;28;20595;-62
2022/12/01 08:17:03;;;;;;;;;;;;;;;-143.57;100.00;51358.66;5096204;28;19939;-62
2022/12/01 08:19:30;;;;;;;;;;;;;;;-143.57;100.00;51386.47;5097242;28;19997;-62
2022/12/01 08:21:56;;;;;;;;;;;;;;;-143.57;100.00;51374.56;5095085;28;19927;-63
2022/12/01 08:24:23;;;;;;;;;;;;;;;-143.57;100.00;51388.47;5094126;28;19935;-62
2022/12/01 08:26:50;;;;;;;;;;;;;;;-143.57;100.00;51426.25;5093629;28;20486;-62
2022/12/01 08:29:16;;;;;;;;;;;;;;;-143.57;100.00;51386.47;5091073;28;19931;-62
2022/12/01 08:31:46;;;;;;;;;;;;;;;-143.57;100.00;51422.25;5096265;28;20004;-62
2022/12/01 08:34:13;;;;;;;;;;;;;;;-143.57;100.00;51402.38;5099885;28;19931;-62
2022/12/01 08:36:39;;;;;;;;;;;;;;;-143.57;100.00;51402.38;5099301;28;19935;-61
2022/12/01 08:39:06;;;;;;;;;;;;;;;-143.57;100.00;51422.25;5101420;28;19993;-61
2022/12/01 08:41:33;;;;;;;;;;;;;;;-143.57;100.00;51386.47;5096912;28;21223;-62
2022/12/01 08:44:00;;;;;;;;;;;;;;;-143.57;100.00;51354.66;5094856;28;19927;-61
2022/12/01 08:46:29;;;;;;;;;;;;;;;-143.57;100.00;51426.25;5099391;28;19924;-61
2022/12/01 08:48:56;;;;;;;;;;;;;;;-143.57;100.00;51398.41;5096516;28;19931;-62
2022/12/01 08:51:24;;;;;;;;;;;;;;;-143.57;100.00;51426.25;5101542;28;19932;-62
2022/12/01 08:53:51;;;;;;;;;;;;;;;-143.57;100.00;51382.50;5100570;28;19927;-62
2022/12/01 08:56:19;;;;;;;;;;;;;;;-143.57;100.00;51418.28;5098888;28;19923;-62
2022/12/01 08:58:46;;;;;;;;;;;;;;;-143.57;100.00;51382.50;5096826;28;19977;-62
2022/12/01 09:01:14;;;;;;;;;;;;;;;-143.57;100.00;51382.50;5094135;28;19934;-63
2022/12/01 09:03:41;;;;;;;;;;;;;;;-143.57;100.00;51418.28;5099780;28;19932;-64
2022/12/01 09:06:19;;;;;;;;;;;;;;;-143.57;100.00;51414.31;5095304;27;20488;-62
2022/12/01 09:08:46;;;;;;;;;;;;;;;-143.57;100.00;51386.47;5095276;28;19928;-62
2022/12/01 09:11:18;;;;;;;;;;;;;;;-143.57;100.00;51378.53;5092785;28;19936;-61
2022/12/01 09:13:45;;;;;;;;;;;;;;;-143.57;100.00;51390.47;5092521;28;20329;-62
2022/12/01 09:16:19;;;;;;;;;;;;;;;-143.57;100.00;51416.28;5090826;28;20036;-62
2022/12/01 09:18:46;;;;;;;;;;;;;;;-143.57;100.00;51394.44;5094542;28;19932;-62
2022/12/01 09:21:13;;;;;;;;;;;;;;;-143.57;100.00;51390.47;5090675;28;20463;-62
2022/12/01 09:23:40;;;;;;;;;;;;;;;-143.57;100.00;51442.16;5091935;28;19982;-62
2022/12/01 09:26:07;;;;;;;;;;;;;;;-143.57;100.00;51422.25;5087041;28;19927;-62
2022/12/01 09:28:38;;;;;;;;;;;;;;;-143.57;100.00;51398.41;5088459;28;19932;-63
2022/12/01 09:31:06;;;;;;;;;;;;;;;-143.57;100.00;51394.44;5096468;28;20397;-63
2022/12/01 09:33:33;;;;;;;;;;;;;;;-143.57;100.00;51422.25;5094557;27;19924;-63
2022/12/01 09:36:01;;;;;;;;;;;;;;;-143.57;100.00;51364.63;5089292;28;20015;-62
2022/12/01 09:38:28;;;;;;;;;;;;;;;-143.57;100.00;51394.44;5089379;28;20116;-63
2022/12/01 09:40:55;;;;;;;;;;;;;;;-143.57;100.00;51418.28;5091573;28;19984;-63
2022/12/01 09:43:24;;;;;;;;;;;;;;;-143.57;100.00;51394.44;5094324;28;20924;-63
2022/12/01 09:45:53;;;;;;;;;;;;;;;-143.57;100.00;51410.34;5093848;28;19928;-64
2022/12/01 09:48:41;;;;;;;;;;;;;;;-143.57;100.00;51390.47;5097740;28;19928;-63
2022/12/01 09:51:12;;;;;;;;;;;;;;;-143.57;100.00;51390.47;5093572;28;19931;-63
2022/12/01 09:53:40;;;;;;;;;;;;;;;-143.57;100.00;51414.31;5095055;28;19928;-63
2022/12/01 09:56:14;;;;;;;;;;;;;;;-143.57;100.00;51388.47;5093031;28;19932;-63
2022/12/01 09:58:41;;;;;;;;;;;;;;;-143.57;100.00;51422.25;5092240;28;20330;-63
2022/12/01 10:01:14;;;;;;;;;;;;;;;-143.57;100.00;51410.34;5091316;28;20318;-64
2022/12/01 10:03:51;;;;;;;;;;;;;;;-143.57;100.00;51394.44;5097096;28;19928;-64
2022/12/01 10:06:23;;;;;;;;;;;;;;;-143.57;100.00;51406.34;5095918;28;20471;-64
2022/12/01 10:09:01;;;;;;;;;;;;;;;-143.57;100.00;51418.28;5091894;28;20361;-63
2022/12/01 10:11:33;;;;;;;;;;;;;;;-143.57;100.00;51422.25;5091747;28;19935;-62
2022/12/01 10:14:00;;;;;;;;;;;;;;;-143.57;100.00;51424.25;5097271;28;19934;-63
2022/12/01 10:16:34;;;;;;;;;;;;;;;-143.57;100.00;51414.31;5094180;28;20256;-63
2022/12/01 10:19:07;;;;;;;;;;;;;;;-143.57;100.00;51428.22;5092707;28;19924;-63
2022/12/01 10:21:37;;;;;;;;;;;;;;;-143.57;100.00;51418.28;5093758;28;20404;-63
2022/12/01 10:24:15;;;;;;;;;;;;;;;-143.57;100.00;51414.31;5092374;28;19927;-60
2022/12/01 10:26:42;;;;;;;;;;;;;;;-143.57;100.00;51370.56;5088821;28;20401;-60
2022/12/01 10:29:20;;;;;;;;;;;;;;;-143.57;100.00;51386.47;5093699;28;19935;-60
2022/12/01 10:31:54;;;;;;;;;;;;;;;-143.57;100.00;51390.47;5089289;28;20356;-60
2022/12/01 10:34:26;;;;;;;;;;;;;;;-143.57;100.00;51398.41;5089063;28;19923;-59
2022/12/01 10:36:53;;;;;;;;;;;;;;;-143.57;100.00;51374.56;5090159;28;19950;-60
2022/12/01 10:39:40;;;;;;;;;;;;;;;-143.57;100.00;51370.56;5092222;28;19942;-61
2022/12/01 10:42:12;;;;;;;;;;;;;;;-143.57;100.00;51398.41;5094393;28;19928;-59
2022/12/01 10:44:39;;;;;;;;;;;;;;;-143.57;100.00;51352.69;5088713;28;20385;-61
2022/12/01 10:47:18;;;;;;;;;;;;;;;-143.57;100.00;51404.38;5093182;28;20455;-61
2022/12/01 10:49:44;;;;;;;;;;;;;;;-143.57;100.00;51374.56;5091343;28;19967;-61
2022/12/01 10:52:30;;;;;;;;;;;;;;;-143.57;100.00;51366.59;5091597;28;19985;-61
2022/12/01 10:54:57;;;;;;;;;;;;;;;-143.57;100.00;51402.38;5097690;28;19924;-61
2022/12/01 10:57:25;;;;;;;;;;;;;;;-143.57;100.00;51386.47;5095821;28;20026;-60
2022/12/01 10:59:55;;;;;;;;;;;;;;;-143.57;100.00;51394.44;5092726;28;19932;-61
2022/12/01 11:02:25;;;;;;;;;;;;;;;-143.57;100.00;51372.56;5094498;28;19932;-60
2022/12/01 11:05:00;;;;;;;;;;;;;;;-143.57;100.00;51410.34;5091072;28;19927;-61
2022/12/01 11:07:34;;;;;;;;;;;;;;;-143.57;100.00;51398.41;5096628;28;19927;-61
2022/12/01 11:10:04;;;;;;;;;;;;;;;-143.57;100.00;51410.34;5086924;28;19924;-62
2022/12/01 11:12:31;;;;;;;;;;;;;;;-143.57;100.00;51364.63;5094037;28;20405;-61
2022/12/01 11:14:58;;;;;;;;;;;;;;;-143.57;100.00;51418.28;5090323;27;19940;-62
2022/12/01 11:17:25;;;;;;;;;;;;;;;-143.57;100.00;51390.47;5089686;28;19957;-62
2022/12/01 11:19:52;;;;;;;;;;;;;;;-143.57;100.00;51416.28;5090580;28;20116;-62
2022/12/01 11:22:27;;;;;;;;;;;;;;;-143.57;100.00;51406.34;5087632;28;20000;-62
2022/12/01 11:24:54;;;;;;;;;;;;;;;-143.57;100.00;51346.72;5091620;28;19932;-62
2022/12/01 11:27:23;;;;;;;;;;;;;;;-143.57;100.00;51426.25;5091052;28;20319;-62
2022/12/01 11:30:10;;;;;;;;;;;;;;;-143.57;100.00;51382.50;5093554;28;19973;-62
2022/12/01 11:32:38;;;;;;;;;;;;;;;-143.57;100.00;51342.75;5091719;28;19928;-62
2022/12/01 11:35:13;;;;;;;;;;;;;;;-143.57;100.00;51410.34;5098250;28;20481;-61
2022/12/01 11:37:46;;;;;;;;;;;;;;;-143.57;100.00;51392.44;5099053;28;20243;-61
2022/12/01 11:40:44;;;;;;;;;;;;;;;-143.57;100.00;51394.44;5093742;27;19934;-62
2022/12/01 11:43:15;;;;;;;;;;;;;;;-143.57;100.00;51406.34;5094861;28;19996;-61
2022/12/01 11:45:43;;;;;;;;;;;;;;;-143.57;100.00;51396.41;5096406;28;19936;-61
2022/12/01 11:48:16;;;;;;;;;;;;;;;-143.57;100.00;51398.41;5098287;28;19927;-62
2022/12/01 11:50:58;;;;;;;;;;;;;;;-143.57;100.00;51334.78;5093851;28;19935;-61
2022/12/01 11:53:24;;;;;;;;;;;;;;;-143.57;100.00;51418.28;5093096;28;19940;-62
2022/12/01 11:55:51;;;;;;;;;;;;;;;-143.57;100.00;51358.66;5092864;28;19939;-62
2022/12/01 11:58:18;;;;;;;;;;;;;;;-143.57;100.00;51422.25;5091760;28;19954;-61
2022/12/01 12:00:46;;;;;;;;;;;;;;;-143.57;100.00;51378.53;5090623;28;20004;-62
2022/12/01 12:03:21;;;;;;;;;;;;;;;-143.57;100.00;51418.28;5095605;28;19928;-62
2022/12/01 12:06:14;;;;;;;;;;;;;;;-143.57;100.00;51378.53;5093718;27;20459;-62
2022/12/01 12:09:09;;;;;;;;;;;;;;;-143.57;100.00;51362.63;5096678;28;20014;-62
2022/12/01 12:11:39;;;;;;;;;;;;;;;-143.57;100.00;51384.50;5095225;28;19927;-62
2022/12/01 12:14:16;;;;;;;;;;;;;;;-143.57;100.00;51402.38;5093878;28;19927;-62
2022/12/01 12:16:46;;;;;;;;;;;;;;;-143.57;100.00;51392.44;5093455;28;20253;-61
2022/12/01 12:19:15;;;;;;;;;;;;;;;-143.57;100.00;51414.31;5096628;28;20680;-63
2022/12/01 12:22:00;;;;;;;;;;;;;;;-143.57;100.00;51416.28;5096389;28;19927;-63
2022/12/01 12:24:27;;;;;;;;;;;;;;;-143.57;100.00;51378.53;5096947;28;19924;-63
2022/12/01 12:27:14;;;;;;;;;;;;;;;-143.57;100.00;51378.53;5097022;28;19993;-63
2022/12/01 12:30:00;;;;;;;;;;;;;;;-143.57;100.00;51410.34;5090888;28;20495;-63
2022/12/01 12:32:29;;;;;;;;;;;;;;;-143.57;100.00;51386.47;5097353;27;19925;-62
2022/12/01 12:35:08;;;;;;;;;;;;;;;-143.57;100.00;51374.56;5094037;28;19934;-63